Delta Virtual Airport Information Service

New York LaGuardia Airport

ICAO: KLGA Country: United States
Latitude: 40.7772 Longitude: -73.8726
Latest Arrival : DALJUMP (KFLL-KLGA) Latest Departure : DAL1496 (2) (KLGA-KMSP)


WX CaptureLIVE
Data provided by noaa.gov | Fetched at 08:23:21

METAR : KLGA 041251Z 15013G16KT 10SM SCT012 BKN018 OVC026 28/24 A2992 RMK AO2 WSHFT 1229 SLP131 T02780239

TAF : KLGA 041305Z 0413/0518 14013G20KT P6SM VCSH FEW009 OVC018 FM041500 15016G25KT 6SM -SHRA BR OVC015 FM041700 12027G43KT 2SM +SHRA BR OVC015 WS020/15055KT FM041900 19038G52KT 4SM -SHRA BR SCT025 BKN035 WS020/19065KT FM042200 24025G35KT P6SM SCT035 BKN250 FM050300 23013KT P6SM SCT250 FM050800 26006KT P6SM SCT250 FM051400 29007KT P6SM FEW050 SCT250


Runway Data for KLGA
Data provided by openaviationdata.com

Runway ID Mag Var Hdg Length Elevation Surface ILS Freq ILS Id ILS Slope
4 -13 45° 7000 ft 22 ft Asphalt 110.5 ILGA 3
13 -13 135° 6994 ft 22 ft Asphalt 108.5 IGDI 3
22 -13 225° 7000 ft 22 ft Asphalt 110.5 IURD 3
31 -13 315° 6994 ft 22 ft Asphalt 108.5 IPZV 0

New York LaGuardia Airport, United States
Use only for reference purposes



Not for navigational purposes.